Oriente, Argentina
Current Conditions -  °F | °C
As of 8:00 PM on Friday 24 Oct 2014 (Local Time) from SAZM Reporting Station
Haze Haze  
Wind Chill: 61°   Ceiling: 500
Heat Index: 61°   Visibility: 0.93mi
Dew Point: 59°   Wind: 6mph
Humidity: 94%   Direction: 90°E
Pressure: 30"   Gusts: NA
Location:  38.73°S, 60.62°W
Report Text: SAZM 242300Z 09005KT 1500 BR BKN005 SCT20016/15 Q1016
Loading
Personal Weather Stations






























Interactive Weather Map
Tropical Storm Tracking
New forecast layout! Learn more

10-Day Weather Forecast

Advertisements
Track Severe Weather on mobile